Brownfield, Illinois
Current Conditions -  °F | °C
As of 10:15 PM on Monday 22 Dec 2014 (Local Time) from KM30 Reporting Station
Overcast Overcast  
Wind Chill: 53°   Ceiling: 900
Heat Index: 53°   Visibility: 10mi
Dew Point: 53°   Wind: 7mph
Humidity: 100%   Direction: 190°S
Pressure: 29.63"   Gusts: NA
Location:  37.3224°N, 88.5774°W
Report Text: KM30 230415Z AUTO 19006KT 10SM BKN009 OVC013 12/12 A2963 RMK AO2 T01170117
Loading
Personal Weather Stations






























Interactive Weather Map New forecast layout! Learn more

10-Day Weather Forecast

Advertisements
Track Severe Weather on mobile